Time;durP1;ratioP1;P1;durP2;ratioP2;P2;SDS_P1;SDS_P2;PMS_P1;PMS_P2;Temp;Humidity;BMP_temperature;BMP_pressure;BME280_temperature;BME280_humidity;BME280_pressure;Samples;Min_cycle;Max_cycle;Signal;HPM_P1;HPM_P2
2020/03/20 00:01:40;;;;;;;2.80;2.60;;;;;;;19.50;42.24;101024.79;;;;-54
2020/03/20 00:04:39;;;;;;;2.61;2.39;;;;;;;19.49;42.30;101020.89;;;;-54
2020/03/20 00:07:40;;;;;;;2.51;2.31;;;;;;;19.49;42.28;101013.57;;;;-56
2020/03/20 00:10:39;;;;;;;2.50;2.30;;;;;;;19.48;42.28;101009.60;;;;-56
2020/03/20 00:14:39;;;;;;;2.48;2.28;;;;;;;19.46;42.30;101008.33;;;;-56
2020/03/20 00:17:39;;;;;;;3.27;2.39;;;;;;;19.46;42.27;101009.50;;;;-57
2020/03/20 00:20:40;;;;;;;2.70;2.50;;;;;;;19.45;42.29;101010.62;;;;-56
2020/03/20 00:23:40;;;;;;;2.55;2.35;;;;;;;19.44;42.24;101010.16;;;;-56
2020/03/20 00:26:39;;;;;;;2.59;2.39;;;;;;;19.43;42.24;101008.06;;;;-56
2020/03/20 00:29:40;;;;;;;2.83;2.52;;;;;;;19.42;42.33;101006.14;;;;-55
2020/03/20 00:32:46;;;;;;;2.70;2.50;;;;;;;19.42;42.29;100999.97;;;;-56
2020/03/20 00:35:45;;;;;;;2.50;2.30;;;;;;;19.41;42.31;100995.88;;;;-54
2020/03/20 00:38:40;;;;;;;2.67;2.47;;;;;;;19.41;42.33;100993.05;;;;-55
2020/03/20 00:41:40;;;;;;;2.57;2.37;;;;;;;19.40;42.32;100991.31;;;;-56
2020/03/20 00:45:39;;;;;;;2.68;2.47;;;;;;;19.39;42.28;100989.13;;;;-56
2020/03/20 00:51:40;;;;;;;2.79;2.57;;;;;;;19.37;42.30;100982.98;;;;-61
2020/03/20 00:54:40;;;;;;;3.37;2.63;;;;;;;19.36;42.33;100982.83;;;;-62
2020/03/20 00:57:39;;;;;;;2.62;2.42;;;;;;;19.35;42.34;100982.32;;;;-62
2020/03/20 01:00:40;;;;;;;2.81;2.55;;;;;;;19.35;42.31;100984.90;;;;-62
2020/03/20 01:05:40;;;;;;;2.73;2.53;;;;;;;19.34;42.35;100975.02;;;;-63
2020/03/20 01:11:40;;;;;;;2.81;2.61;;;;;;;19.33;42.29;100975.18;;;;-60
2020/03/20 01:16:40;;;;;;;2.53;2.33;;;;;;;19.32;42.26;100969.27;;;;-60
2020/03/20 01:20:40;;;;;;;2.67;2.43;;;;;;;19.32;42.30;100965.47;;;;-62
2020/03/20 01:24:40;;;;;;;2.76;2.56;;;;;;;19.30;42.31;100962.25;;;;-62
2020/03/20 01:29:40;;;;;;;2.92;2.45;;;;;;;19.29;42.37;100969.27;;;;-62
2020/03/20 01:34:40;;;;;;;2.85;2.61;;;;;;;19.28;42.32;100972.80;;;;-62
2020/03/20 01:44:06;;;;;;;2.95;2.57;;;;;;;19.26;42.33;100962.98;;;;-59
2020/03/20 01:48:06;;;;;;;2.78;2.58;;;;;;;19.25;42.35;100967.28;;;;-60
2020/03/20 01:53:06;;;;;;;2.85;2.55;;;;;;;19.25;42.28;100960.23;;;;-63
2020/03/20 01:57:06;;;;;;;2.82;2.62;;;;;;;19.24;42.32;100956.61;;;;-61
2020/03/20 02:01:06;;;;;;;2.71;2.51;;;;;;;19.23;42.37;100954.77;;;;-62
2020/03/20 02:06:06;;;;;;;2.69;2.49;;;;;;;19.21;42.34;100953.95;;;;-62
2020/03/20 02:10:06;;;;;;;2.69;2.49;;;;;;;19.22;42.36;100954.72;;;;-62
2020/03/20 02:16:06;;;;;;;2.64;2.44;;;;;;;19.21;42.38;100954.00;;;;-61
2020/03/20 02:19:06;;;;;;;2.62;2.42;;;;;;;19.19;42.41;100956.95;;;;-62
2020/03/20 02:23:06;;;;;;;2.89;2.61;;;;;;;19.20;42.34;100963.66;;;;-62
2020/03/20 02:27:06;;;;;;;2.79;2.57;;;;;;;19.19;42.34;100958.34;;;;-62
2020/03/20 02:30:06;;;;;;;2.61;2.40;;;;;;;19.18;42.37;100953.77;;;;-62
2020/03/20 02:34:06;;;;;;;2.71;2.46;;;;;;;19.17;42.37;100949.47;;;;-62
2020/03/20 02:37:06;;;;;;;2.81;2.41;;;;;;;19.17;42.38;100951.66;;;;-62
2020/03/20 02:40:06;;;;;;;2.83;2.61;;;;;;;19.17;42.35;100949.83;;;;-63
2020/03/20 02:45:06;;;;;;;2.78;2.58;;;;;;;19.16;42.33;100949.08;;;;-62
2020/03/20 02:49:06;;;;;;;2.61;2.41;;;;;;;19.15;42.39;100947.31;;;;-62
2020/03/20 02:52:06;;;;;;;2.71;2.51;;;;;;;19.15;42.35;100942.06;;;;-60
2020/03/20 02:55:06;;;;;;;2.70;2.50;;;;;;;19.14;42.35;100945.80;;;;-61
2020/03/20 02:58:06;;;;;;;2.77;2.57;;;;;;;19.14;42.35;100947.70;;;;-62
2020/03/20 03:01:06;;;;;;;2.73;2.51;;;;;;;19.14;42.36;100951.22;;;;-62
2020/03/20 03:10:32;;;;;;;2.71;2.51;;;;;;;19.11;42.39;100947.61;;;;-61
2020/03/20 03:13:32;;;;;;;2.67;2.47;;;;;;;19.12;42.36;100947.55;;;;-61
2020/03/20 03:19:32;;;;;;;3.05;2.75;;;;;;;19.11;42.34;100953.09;;;;-60
2020/03/20 03:25:32;;;;;;;2.68;2.48;;;;;;;19.09;42.36;100948.63;;;;-61
2020/03/20 03:28:32;;;;;;;2.65;2.45;;;;;;;19.08;42.35;100951.59;;;;-61
2020/03/20 03:31:32;;;;;;;2.77;2.57;;;;;;;19.08;42.32;100951.19;;;;-62
2020/03/20 03:34:32;;;;;;;2.96;2.70;;;;;;;19.07;42.39;100955.16;;;;-61
2020/03/20 03:37:32;;;;;;;2.89;2.66;;;;;;;19.07;42.35;100952.37;;;;-61
2020/03/20 03:40:32;;;;;;;2.84;2.63;;;;;;;19.06;42.36;100952.53;;;;-60
2020/03/20 03:43:32;;;;;;;2.93;2.62;;;;;;;19.06;42.34;100952.42;;;;-60
2020/03/20 03:46:32;;;;;;;2.61;2.41;;;;;;;19.06;42.38;100951.08;;;;-61
2020/03/20 03:49:32;;;;;;;2.82;2.62;;;;;;;19.05;42.35;100945.91;;;;-52
2020/03/20 03:52:32;;;;;;;2.97;2.68;;;;;;;19.05;42.36;100947.84;;;;-52
2020/03/20 03:55:32;;;;;;;3.01;2.75;;;;;;;19.05;42.32;100945.83;;;;-51
2020/03/20 03:58:32;;;;;;;2.61;2.41;;;;;;;19.04;42.38;100945.62;;;;-53
2020/03/20 04:01:32;;;;;;;3.16;2.76;;;;;;;19.04;42.35;100947.80;;;;-52
2020/03/20 04:04:32;;;;;;;2.71;2.51;;;;;;;19.03;42.30;100943.89;;;;-52
2020/03/20 04:07:32;;;;;;;2.78;2.58;;;;;;;19.02;42.32;100941.27;;;;-52
2020/03/20 04:10:47;;;;;;;2.60;2.40;;;;;;;19.01;42.35;100943.88;;;;-52
2020/03/20 04:14:32;;;;;;;2.69;2.49;;;;;;;19.02;42.33;100950.86;;;;-52
2020/03/20 04:17:32;;;;;;;2.71;2.51;;;;;;;19.01;42.36;100955.34;;;;-51
2020/03/20 04:20:32;;;;;;;3.08;2.78;;;;;;;19.01;42.34;100956.83;;;;-52
2020/03/20 04:23:32;;;;;;;2.89;2.65;;;;;;;19.00;42.33;100960.97;;;;-52
2020/03/20 04:26:32;;;;;;;2.73;2.50;;;;;;;19.00;42.38;100958.96;;;;-52
2020/03/20 04:29:32;;;;;;;2.80;2.60;;;;;;;18.99;42.34;100957.91;;;;-52
2020/03/20 04:32:32;;;;;;;2.72;2.52;;;;;;;18.99;42.33;100959.51;;;;-52
2020/03/20 04:35:32;;;;;;;2.80;2.60;;;;;;;18.99;42.38;100967.70;;;;-52
2020/03/20 04:38:32;;;;;;;3.54;2.69;;;;;;;18.98;42.33;100963.38;;;;-51
2020/03/20 04:41:32;;;;;;;3.27;2.86;;;;;;;18.97;42.29;100962.15;;;;-52
2020/03/20 04:44:32;;;;;;;2.72;2.52;;;;;;;18.98;42.31;100970.67;;;;-52
2020/03/20 04:47:32;;;;;;;2.93;2.72;;;;;;;18.98;42.35;100971.34;;;;-52
2020/03/20 04:50:32;;;;;;;2.75;2.55;;;;;;;19.00;42.25;100970.34;;;;-52
2020/03/20 04:53:32;;;;;;;2.88;2.68;;;;;;;19.01;42.24;100973.41;;;;-52
2020/03/20 04:56:32;;;;;;;2.91;2.50;;;;;;;19.02;42.21;100979.42;;;;-52
2020/03/20 04:59:32;;;;;;;2.87;2.60;;;;;;;19.04;42.20;100983.27;;;;-53
2020/03/20 05:02:32;;;;;;;2.85;2.65;;;;;;;19.06;42.21;100987.06;;;;-52
2020/03/20 05:05:32;;;;;;;2.96;2.75;;;;;;;19.08;42.20;100984.45;;;;-52
2020/03/20 05:08:32;;;;;;;2.73;2.53;;;;;;;19.12;42.23;100983.22;;;;-52
2020/03/20 05:11:32;;;;;;;3.31;3.01;;;;;;;19.15;42.20;100984.02;;;;-52
2020/03/20 05:14:32;;;;;;;2.77;2.57;;;;;;;19.18;42.25;100978.55;;;;-52
2020/03/20 05:17:32;;;;;;;2.78;2.58;;;;;;;19.22;42.24;100977.50;;;;-52
2020/03/20 05:20:32;;;;;;;2.91;2.71;;;;;;;19.26;42.34;100981.34;;;;-52
2020/03/20 05:23:32;;;;;;;2.82;2.62;;;;;;;19.28;42.29;100979.10;;;;-52
2020/03/20 05:26:32;;;;;;;2.75;2.55;;;;;;;19.31;42.40;100982.73;;;;-52
2020/03/20 05:29:32;;;;;;;2.63;2.43;;;;;;;19.35;42.35;100976.84;;;;-52
2020/03/20 05:32:32;;;;;;;3.09;2.79;;;;;;;19.36;42.35;100974.69;;;;-52
2020/03/20 05:35:32;;;;;;;3.26;2.92;;;;;;;19.38;42.23;100982.44;;;;-52
2020/03/20 05:38:32;;;;;;;3.09;2.85;;;;;;;19.39;42.23;100987.45;;;;-52
2020/03/20 05:41:32;;;;;;;3.23;2.96;;;;;;;19.41;42.17;100989.06;;;;-53
2020/03/20 05:44:32;;;;;;;2.91;2.64;;;;;;;19.44;42.15;100988.18;;;;-52
2020/03/20 05:47:32;;;;;;;3.35;3.05;;;;;;;19.43;42.11;100986.77;;;;-52
2020/03/20 05:50:32;;;;;;;3.15;2.85;;;;;;;19.45;42.15;100988.23;;;;-52
2020/03/20 05:53:32;;;;;;;3.67;2.84;;;;;;;19.46;42.09;100990.17;;;;-52
2020/03/20 05:56:32;;;;;;;3.23;2.93;;;;;;;19.47;42.16;100993.30;;;;-52
2020/03/20 05:59:32;;;;;;;3.24;2.94;;;;;;;19.47;42.11;100993.14;;;;-52
2020/03/20 06:02:32;;;;;;;3.27;2.95;;;;;;;19.47;42.12;100993.98;;;;-53
2020/03/20 06:05:32;;;;;;;3.61;3.31;;;;;;;19.48;42.13;100996.37;;;;-52
2020/03/20 06:08:32;;;;;;;4.83;3.05;;;;;;;19.48;42.13;100991.62;;;;-52
2020/03/20 06:11:32;;;;;;;3.35;3.05;;;;;;;19.48;42.06;100999.22;;;;-53
2020/03/20 06:14:32;;;;;;;3.51;3.21;;;;;;;19.48;42.04;101002.58;;;;-53
2020/03/20 06:17:32;;;;;;;3.74;3.41;;;;;;;19.49;42.03;101003.19;;;;-52
2020/03/20 06:20:32;;;;;;;3.36;3.06;;;;;;;19.49;42.05;101007.25;;;;-52
2020/03/20 06:23:32;;;;;;;3.59;3.29;;;;;;;19.48;41.97;100999.99;;;;-52
2020/03/20 06:26:32;;;;;;;3.55;3.25;;;;;;;19.49;42.05;101001.11;;;;-52
2020/03/20 06:29:32;;;;;;;3.48;3.17;;;;;;;19.48;42.01;100996.64;;;;-52
2020/03/20 06:32:32;;;;;;;3.37;3.07;;;;;;;19.48;41.99;101000.63;;;;-52
2020/03/20 06:35:32;;;;;;;3.44;3.12;;;;;;;19.47;42.00;101001.69;;;;-53
2020/03/20 06:38:32;;;;;;;3.83;3.27;;;;;;;19.47;41.93;101004.36;;;;-53
2020/03/20 06:41:32;;;;;;;3.61;3.15;;;;;;;19.47;41.92;101008.48;;;;-52
2020/03/20 06:44:32;;;;;;;3.99;3.51;;;;;;;19.47;41.89;101007.64;;;;-52
2020/03/20 06:47:53;;;;;;;3.34;3.02;;;;;;;19.46;41.89;101009.39;;;;-52
2020/03/20 06:50:33;;;;;;;3.53;3.23;;;;;;;19.46;41.89;101009.73;;;;-52
2020/03/20 06:53:32;;;;;;;3.82;3.35;;;;;;;19.46;41.93;101016.30;;;;-53
2020/03/20 06:56:32;;;;;;;3.83;3.33;;;;;;;19.45;41.84;101016.25;;;;-52
2020/03/20 06:59:32;;;;;;;3.71;3.41;;;;;;;19.45;41.87;101017.38;;;;-52
2020/03/20 07:02:32;;;;;;;4.17;3.50;;;;;;;19.43;41.89;101021.94;;;;-52
2020/03/20 07:05:32;;;;;;;4.21;3.52;;;;;;;19.44;41.89;101026.37;;;;-52
2020/03/20 07:08:32;;;;;;;4.01;3.39;;;;;;;19.44;41.82;101027.75;;;;-52
2020/03/20 07:11:32;;;;;;;4.30;3.57;;;;;;;19.43;41.91;101025.64;;;;-52
2020/03/20 07:14:32;;;;;;;3.83;3.53;;;;;;;19.42;41.79;101027.48;;;;-52
2020/03/20 07:17:32;;;;;;;3.87;3.50;;;;;;;19.42;41.88;101027.42;;;;-52
2020/03/20 07:20:32;;;;;;;3.91;3.51;;;;;;;19.42;41.86;101032.73;;;;-52
2020/03/20 07:23:32;;;;;;;3.87;3.47;;;;;;;19.42;41.82;101033.61;;;;-52
2020/03/20 07:26:32;;;;;;;3.91;3.50;;;;;;;19.41;41.78;101032.22;;;;-53
2020/03/20 07:29:32;;;;;;;3.54;3.24;;;;;;;19.42;41.83;101029.95;;;;-52
2020/03/20 07:32:32;;;;;;;3.92;3.30;;;;;;;19.41;41.80;101030.00;;;;-52
2020/03/20 07:35:32;;;;;;;3.61;3.31;;;;;;;19.41;41.79;101034.86;;;;-62
2020/03/20 07:38:32;;;;;;;3.54;3.24;;;;;;;19.41;41.83;101040.32;;;;-62
2020/03/20 07:41:32;;;;;;;3.59;3.29;;;;;;;19.40;41.86;101036.86;;;;-61
2020/03/20 07:44:32;;;;;;;3.79;3.47;;;;;;;19.41;41.83;101042.62;;;;-62
2020/03/20 07:47:32;;;;;;;3.47;3.18;;;;;;;19.41;41.81;101044.58;;;;-62
2020/03/20 07:50:32;;;;;;;4.14;3.51;;;;;;;19.41;41.89;101045.79;;;;-62
2020/03/20 07:53:32;;;;;;;3.42;3.12;;;;;;;19.41;41.89;101041.44;;;;-62
2020/03/20 07:56:32;;;;;;;3.76;3.33;;;;;;;19.42;41.89;101042.05;;;;-60
2020/03/20 07:59:32;;;;;;;4.26;3.49;;;;;;;19.42;41.86;101045.67;;;;-62
2020/03/20 08:02:32;;;;;;;3.55;3.25;;;;;;;19.43;41.86;101043.95;;;;-61
2020/03/20 08:05:32;;;;;;;4.63;3.58;;;;;;;19.43;41.81;101048.43;;;;-61
2020/03/20 08:08:32;;;;;;;3.66;3.36;;;;;;;19.44;41.88;101051.66;;;;-61
2020/03/20 08:11:32;;;;;;;3.41;3.10;;;;;;;19.43;41.82;101049.75;;;;-61
2020/03/20 08:14:32;;;;;;;3.95;3.56;;;;;;;19.44;41.81;101047.93;;;;-61
2020/03/20 08:17:32;;;;;;;3.69;3.37;;;;;;;19.44;41.90;101047.41;;;;-61
2020/03/20 08:20:32;;;;;;;4.96;3.55;;;;;;;19.45;41.82;101043.45;;;;-62
2020/03/20 08:23:32;;;;;;;3.42;3.12;;;;;;;19.44;41.88;101047.42;;;;-61
2020/03/20 08:26:32;;;;;;;3.91;3.51;;;;;;;19.46;41.79;101046.91;;;;-61
2020/03/20 08:29:32;;;;;;;3.49;3.13;;;;;;;19.47;41.81;101047.64;;;;-62
2020/03/20 08:32:32;;;;;;;3.60;3.30;;;;;;;19.47;41.86;101048.08;;;;-61
2020/03/20 08:35:32;;;;;;;3.66;3.13;;;;;;;19.47;41.84;101048.25;;;;-61
2020/03/20 08:38:32;;;;;;;4.58;3.23;;;;;;;19.47;41.88;101045.34;;;;-61
2020/03/20 08:41:32;;;;;;;3.59;3.29;;;;;;;19.47;41.86;101045.39;;;;-60
2020/03/20 08:44:32;;;;;;;4.17;3.40;;;;;;;19.47;41.86;101043.56;;;;-55
2020/03/20 08:47:32;;;;;;;3.89;3.49;;;;;;;19.46;41.89;101044.57;;;;-56
2020/03/20 08:50:32;;;;;;;8.06;6.66;;;;;;;19.31;41.95;101042.80;;;;-51
2020/03/20 08:53:32;;;;;;;9.57;7.49;;;;;;;19.32;41.99;101043.34;;;;-50
2020/03/20 08:56:32;;;;;;;8.39;7.34;;;;;;;19.29;41.96;101040.45;;;;-49
2020/03/20 08:59:32;;;;;;;9.67;7.63;;;;;;;19.30;42.08;101041.13;;;;-57
2020/03/20 09:02:32;;;;;;;9.70;7.77;;;;;;;19.30;42.08;101042.90;;;;-47
2020/03/20 09:05:32;;;;;;;8.63;7.61;;;;;;;19.28;42.20;101039.63;;;;-47
2020/03/20 09:08:32;;;;;;;8.95;7.59;;;;;;;19.28;42.33;101039.45;;;;-59
2020/03/20 09:11:32;;;;;;;11.09;7.57;;;;;;;19.31;42.62;101040.11;;;;-54
2020/03/20 09:14:32;;;;;;;9.33;6.59;;;;;;;19.34;42.48;101033.91;;;;-55
2020/03/20 09:17:32;;;;;;;6.12;5.47;;;;;;;19.37;42.54;101033.07;;;;-52
2020/03/20 09:20:32;;;;;;;6.69;5.64;;;;;;;19.39;42.52;101032.45;;;;-49
2020/03/20 09:23:32;;;;;;;8.09;5.22;;;;;;;19.42;42.51;101032.73;;;;-48
2020/03/20 09:26:32;;;;;;;5.77;5.05;;;;;;;19.44;42.55;101029.49;;;;-50
2020/03/20 09:29:32;;;;;;;5.45;4.88;;;;;;;19.45;42.43;101029.44;;;;-49
2020/03/20 09:32:32;;;;;;;5.02;4.52;;;;;;;19.45;42.58;101029.89;;;;-55
2020/03/20 09:35:32;;;;;;;5.33;4.35;;;;;;;19.47;42.61;101029.09;;;;-56
2020/03/20 09:38:32;;;;;;;6.99;4.66;;;;;;;19.48;42.62;101027.80;;;;-56
2020/03/20 09:41:32;;;;;;;5.80;3.98;;;;;;;19.49;42.71;101025.75;;;;-57
2020/03/20 09:46:32;;;;;;;4.41;3.93;;;;;;;19.53;42.50;101018.98;;;;-50
2020/03/20 09:49:32;;;;;;;5.59;3.85;;;;;;;19.52;42.41;101015.75;;;;-50
2020/03/20 09:52:32;;;;;;;5.88;4.00;;;;;;;19.52;42.31;101015.19;;;;-50
2020/03/20 09:55:32;;;;;;;4.31;3.88;;;;;;;19.52;42.30;101012.89;;;;-51
2020/03/20 09:58:32;;;;;;;5.59;3.99;;;;;;;19.52;42.26;101013.34;;;;-51
2020/03/20 10:01:32;;;;;;;6.88;4.11;;;;;;;19.51;42.51;101009.10;;;;-46
2020/03/20 10:04:32;;;;;;;4.70;3.88;;;;;;;19.51;42.59;101006.92;;;;-46
2020/03/20 10:07:32;;;;;;;4.94;3.97;;;;;;;19.53;42.65;101008.92;;;;-46
2020/03/20 10:10:32;;;;;;;7.33;3.93;;;;;;;19.55;42.66;101006.85;;;;-54
2020/03/20 10:13:32;;;;;;;4.25;3.85;;;;;;;19.57;42.79;101003.11;;;;-50
2020/03/20 10:16:32;;;;;;;6.64;3.71;;;;;;;19.62;43.01;100998.45;;;;-57
2020/03/20 10:19:32;;;;;;;8.58;3.83;;;;;;;19.65;42.87;100996.66;;;;-58
2020/03/20 10:22:32;;;;;;;4.95;3.69;;;;;;;19.67;42.62;100989.80;;;;-54
2020/03/20 10:25:32;;;;;;;4.36;3.58;;;;;;;19.69;42.58;100986.82;;;;-59
2020/03/20 10:28:32;;;;;;;5.13;3.37;;;;;;;19.71;42.64;100979.99;;;;-53
2020/03/20 10:31:32;;;;;;;4.69;3.35;;;;;;;19.73;42.42;100977.66;;;;-50
2020/03/20 10:34:32;;;;;;;6.31;3.43;;;;;;;19.78;42.75;100976.45;;;;-53
2020/03/20 10:37:32;;;;;;;3.85;3.50;;;;;;;19.79;42.34;100971.66;;;;-53
2020/03/20 10:40:32;;;;;;;4.75;3.59;;;;;;;19.81;42.58;100969.67;;;;-49
2020/03/20 10:43:32;;;;;;;6.54;3.25;;;;;;;19.82;42.64;100967.05;;;;-49
2020/03/20 10:46:32;;;;;;;4.11;3.42;;;;;;;19.85;42.73;100966.94;;;;-51
2020/03/20 10:49:32;;;;;;;5.35;3.31;;;;;;;19.87;42.85;100968.48;;;;-51
2020/03/20 10:52:32;;;;;;;4.69;3.15;;;;;;;19.90;42.63;100963.77;;;;-50
2020/03/20 10:55:32;;;;;;;3.63;3.29;;;;;;;19.91;42.45;100957.84;;;;-50
2020/03/20 10:58:32;;;;;;;4.45;3.41;;;;;;;19.91;42.38;100957.79;;;;-51
2020/03/20 11:01:32;;;;;;;4.54;3.30;;;;;;;19.93;42.26;100956.88;;;;-51
2020/03/20 11:05:32;;;;;;;4.05;3.55;;;;;;;19.94;42.15;100950.35;;;;-51
2020/03/20 11:08:32;;;;;;;4.05;3.42;;;;;;;19.95;42.08;100944.59;;;;-50
2020/03/20 11:11:32;;;;;;;3.58;3.28;;;;;;;19.96;42.08;100946.37;;;;-51
2020/03/20 11:14:32;;;;;;;3.59;3.29;;;;;;;19.97;42.11;100945.85;;;;-51
2020/03/20 11:17:32;;;;;;;3.95;3.41;;;;;;;19.97;41.97;100946.42;;;;-51
2020/03/20 11:20:32;;;;;;;4.08;3.29;;;;;;;19.98;41.91;100942.48;;;;-50
2020/03/20 11:23:32;;;;;;;4.67;3.18;;;;;;;19.99;41.89;100944.45;;;;-51
2020/03/20 11:26:32;;;;;;;4.55;3.29;;;;;;;20.00;41.89;100945.48;;;;-51
2020/03/20 11:29:32;;;;;;;3.75;3.41;;;;;;;20.01;41.83;100943.64;;;;-50
2020/03/20 11:32:32;;;;;;;3.50;3.20;;;;;;;20.02;41.83;100938.45;;;;-51
2020/03/20 11:35:32;;;;;;;5.23;3.67;;;;;;;20.02;42.04;100940.16;;;;-50
2020/03/20 11:38:32;;;;;;;3.99;3.59;;;;;;;20.03;42.35;100938.78;;;;-48
2020/03/20 11:41:32;;;;;;;3.69;3.35;;;;;;;20.04;42.53;100933.73;;;;-51
2020/03/20 11:44:33;;;;;;;3.87;3.38;;;;;;;20.07;42.03;100930.81;;;;-49
2020/03/20 11:47:32;;;;;;;4.33;3.07;;;;;;;20.09;42.25;100925.83;;;;-50
2020/03/20 11:50:32;;;;;;;4.89;3.53;;;;;;;20.12;42.24;100924.13;;;;-50
2020/03/20 11:53:32;;;;;;;4.02;3.41;;;;;;;20.13;42.18;100919.38;;;;-51
2020/03/20 11:56:32;;;;;;;4.02;3.32;;;;;;;20.14;42.06;100918.41;;;;-51
2020/03/20 11:59:32;;;;;;;3.69;3.35;;;;;;;20.14;41.97;100914.67;;;;-50
2020/03/20 12:02:32;;;;;;;3.44;3.14;;;;;;;20.15;41.88;100908.23;;;;-52
2020/03/20 12:05:32;;;;;;;3.27;2.98;;;;;;;20.16;41.88;100905.59;;;;-51
2020/03/20 12:08:32;;;;;;;3.29;2.99;;;;;;;20.17;41.80;100899.11;;;;-50
2020/03/20 12:11:32;;;;;;;5.49;3.41;;;;;;;20.16;41.88;100898.16;;;;-45
2020/03/20 12:14:33;;;;;;;4.53;3.37;;;;;;;20.17;41.90;100892.98;;;;-44
2020/03/20 12:17:32;;;;;;;3.89;3.23;;;;;;;20.17;41.83;100889.05;;;;-45
2020/03/20 12:20:32;;;;;;;4.63;3.45;;;;;;;20.18;41.95;100886.08;;;;-44
2020/03/20 12:23:32;;;;;;;4.94;3.43;;;;;;;20.18;41.95;100878.88;;;;-43
2020/03/20 12:26:32;;;;;;;5.83;3.43;;;;;;;20.19;41.79;100879.02;;;;-53
2020/03/20 12:29:32;;;;;;;5.35;3.43;;;;;;;20.20;42.00;100872.42;;;;-56
2020/03/20 12:32:32;;;;;;;3.50;3.19;;;;;;;20.20;42.03;100871.15;;;;-55
2020/03/20 12:35:32;;;;;;;3.93;3.13;;;;;;;20.21;41.99;100866.59;;;;-60
2020/03/20 12:38:32;;;;;;;4.13;3.31;;;;;;;20.24;41.96;100866.04;;;;-64
2020/03/20 12:41:32;;;;;;;4.37;3.13;;;;;;;20.24;41.91;100863.06;;;;-64
2020/03/20 12:44:32;;;;;;;5.20;3.01;;;;;;;20.25;41.75;100859.75;;;;-64
2020/03/20 12:47:32;;;;;;;3.63;3.22;;;;;;;20.27;41.76;100860.48;;;;-64
2020/03/20 12:50:32;;;;;;;4.17;3.27;;;;;;;20.28;41.70;100857.34;;;;-64
2020/03/20 12:53:32;;;;;;;3.31;3.01;;;;;;;20.27;41.72;100848.45;;;;-64
2020/03/20 12:56:32;;;;;;;3.41;3.05;;;;;;;20.28;41.69;100850.41;;;;-63
2020/03/20 12:59:31;;;;;;;3.72;2.99;;;;;;;20.28;41.62;100846.61;;;;-64
2020/03/20 13:02:32;;;;;;;3.58;3.16;;;;;;;20.29;41.66;100848.98;;;;-64
2020/03/20 13:05:32;;;;;;;3.69;2.92;;;;;;;20.30;41.64;100848.55;;;;-55
2020/03/20 13:08:32;;;;;;;3.77;3.10;;;;;;;20.32;42.11;100845.28;;;;-59
2020/03/20 13:11:32;;;;;;;5.29;3.01;;;;;;;20.33;42.45;100838.66;;;;-60
2020/03/20 13:14:32;;;;;;;3.30;3.00;;;;;;;20.33;42.55;100840.02;;;;-60
2020/03/20 13:17:32;;;;;;;4.85;3.24;;;;;;;20.35;43.01;100835.64;;;;-60
2020/03/20 13:20:31;;;;;;;3.15;2.67;;;;;;;20.37;42.87;100833.72;;;;-52
2020/03/20 13:23:31;;;;;;;3.29;2.97;;;;;;;20.39;43.16;100823.92;;;;-54
2020/03/20 13:26:32;;;;;;;5.49;2.90;;;;;;;20.40;42.99;100830.50;;;;-59
2020/03/20 13:29:32;;;;;;;4.47;3.09;;;;;;;20.41;42.86;100823.95;;;;-50
2020/03/20 13:32:32;;;;;;;3.22;2.89;;;;;;;20.43;42.65;100813.70;;;;-51
2020/03/20 13:35:32;;;;;;;3.77;3.01;;;;;;;20.44;42.92;100816.09;;;;-54
2020/03/20 13:38:32;;;;;;;3.26;2.85;;;;;;;20.45;42.78;100819.33;;;;-57
2020/03/20 13:41:32;;;;;;;5.05;3.24;;;;;;;20.46;42.67;100819.87;;;;-55
2020/03/20 13:44:32;;;;;;;4.56;3.23;;;;;;;20.47;42.64;100805.39;;;;-56
2020/03/20 13:47:32;;;;;;;3.16;2.86;;;;;;;20.48;42.58;100803.87;;;;-53
2020/03/20 13:50:32;;;;;;;3.42;2.89;;;;;;;20.49;42.53;100808.23;;;;-51
2020/03/20 13:53:32;;;;;;;3.72;2.82;;;;;;;20.49;42.36;100805.09;;;;-51
2020/03/20 13:56:32;;;;;;;4.78;3.05;;;;;;;20.50;42.92;100804.69;;;;-50
2020/03/20 13:59:32;;;;;;;4.71;3.17;;;;;;;20.48;42.32;100806.11;;;;-50
2020/03/20 14:02:32;;;;;;;4.37;3.21;;;;;;;20.47;42.34;100796.16;;;;-50
2020/03/20 14:05:32;;;;;;;4.33;3.39;;;;;;;20.47;42.46;100794.93;;;;-54
2020/03/20 14:08:32;;;;;;;5.06;3.24;;;;;;;20.47;42.26;100789.80;;;;-54
2020/03/20 14:11:31;;;;;;;4.37;3.09;;;;;;;20.47;42.27;100793.52;;;;-54
2020/03/20 14:14:32;;;;;;;3.61;3.02;;;;;;;20.46;42.03;100791.19;;;;-57
2020/03/20 14:17:32;;;;;;;3.51;3.19;;;;;;;20.46;42.01;100788.44;;;;-55
2020/03/20 14:20:31;;;;;;;3.53;3.23;;;;;;;20.46;41.93;100787.06;;;;-51
2020/03/20 14:23:35;;;;;;;3.47;3.06;;;;;;;20.45;42.02;100786.72;;;;-53
2020/03/20 14:26:32;;;;;;;3.52;3.22;;;;;;;20.46;41.98;100788.84;;;;-52
2020/03/20 14:29:32;;;;;;;4.55;3.37;;;;;;;20.46;41.83;100784.98;;;;-58
2020/03/20 14:32:32;;;;;;;4.75;3.25;;;;;;;20.46;41.88;100782.91;;;;-61
2020/03/20 14:35:32;;;;;;;3.65;3.29;;;;;;;20.46;41.92;100777.94;;;;-51
2020/03/20 14:38:32;;;;;;;3.79;3.39;;;;;;;20.46;41.91;100781.69;;;;-51
2020/03/20 14:41:32;;;;;;;4.28;3.33;;;;;;;20.46;41.87;100775.75;;;;-57
2020/03/20 14:44:31;;;;;;;3.47;3.17;;;;;;;20.45;41.98;100773.69;;;;-51
2020/03/20 14:47:32;;;;;;;3.41;3.11;;;;;;;20.46;41.81;100775.42;;;;-57
2020/03/20 14:50:32;;;;;;;3.63;3.31;;;;;;;20.46;41.83;100772.23;;;;-51
2020/03/20 14:53:32;;;;;;;3.55;3.17;;;;;;;20.46;41.88;100775.98;;;;-52
2020/03/20 14:56:31;;;;;;;3.59;3.27;;;;;;;20.46;41.80;100776.09;;;;-62
2020/03/20 14:59:32;;;;;;;3.49;3.17;;;;;;;20.46;41.84;100776.42;;;;-59
2020/03/20 15:02:32;;;;;;;4.73;3.54;;;;;;;20.46;41.90;100778.44;;;;-59
2020/03/20 15:05:32;;;;;;;4.37;3.53;;;;;;;20.47;41.70;100773.78;;;;-56
2020/03/20 15:08:32;;;;;;;3.97;3.43;;;;;;;20.46;41.94;100770.05;;;;-49
2020/03/20 15:11:32;;;;;;;3.85;3.26;;;;;;;20.46;41.65;100775.02;;;;-49
2020/03/20 15:14:31;;;;;;;3.71;3.27;;;;;;;20.46;41.55;100772.50;;;;-49
2020/03/20 15:17:32;;;;;;;3.53;3.19;;;;;;;20.45;41.57;100775.48;;;;-49
2020/03/20 15:20:32;;;;;;;3.98;3.36;;;;;;;20.45;41.62;100773.59;;;;-49
2020/03/20 15:23:32;;;;;;;3.86;3.40;;;;;;;20.45;41.51;100776.15;;;;-49
2020/03/20 15:26:32;;;;;;;4.06;3.47;;;;;;;20.44;41.50;100778.78;;;;-49
2020/03/20 15:29:31;;;;;;;3.54;3.20;;;;;;;20.44;41.33;100778.41;;;;-50
2020/03/20 15:32:32;;;;;;;4.21;3.59;;;;;;;20.43;41.46;100779.20;;;;-50
2020/03/20 15:35:32;;;;;;;7.03;3.89;;;;;;;20.42;41.72;100779.66;;;;-51
2020/03/20 15:38:32;;;;;;;4.95;3.88;;;;;;;20.40;41.89;100775.81;;;;-52
2020/03/20 15:41:32;;;;;;;3.93;3.54;;;;;;;20.39;41.80;100776.05;;;;-50
2020/03/20 15:44:32;;;;;;;4.87;3.60;;;;;;;20.40;41.87;100780.02;;;;-51
2020/03/20 15:47:32;;;;;;;4.04;3.64;;;;;;;20.40;41.87;100778.27;;;;-51
2020/03/20 15:50:32;;;;;;;6.71;3.37;;;;;;;20.43;41.88;100778.12;;;;-50
2020/03/20 15:53:32;;;;;;;6.74;3.59;;;;;;;20.44;41.67;100781.87;;;;-50
2020/03/20 15:56:32;;;;;;;3.86;3.46;;;;;;;20.44;41.63;100784.28;;;;-50
2020/03/20 15:59:32;;;;;;;3.47;3.17;;;;;;;20.44;41.65;100785.39;;;;-50
2020/03/20 16:02:31;;;;;;;3.81;3.37;;;;;;;20.44;41.64;100789.42;;;;-50
2020/03/20 16:05:31;;;;;;;4.23;3.48;;;;;;;20.44;41.66;100789.31;;;;-50
2020/03/20 16:08:32;;;;;;;3.62;3.32;;;;;;;20.43;41.62;100790.61;;;;-50
2020/03/20 16:11:31;;;;;;;3.97;3.57;;;;;;;20.43;41.75;100789.61;;;;-48
2020/03/20 16:14:31;;;;;;;4.86;3.58;;;;;;;20.44;42.07;100793.95;;;;-48
2020/03/20 16:17:32;;;;;;;4.28;3.54;;;;;;;20.47;42.21;100795.76;;;;-50
2020/03/20 16:20:32;;;;;;;3.61;3.31;;;;;;;20.48;42.29;100792.80;;;;-51
2020/03/20 16:23:31;;;;;;;4.41;3.41;;;;;;;20.49;42.30;100794.92;;;;-48
2020/03/20 16:26:31;;;;;;;4.32;3.33;;;;;;;20.51;42.49;100793.89;;;;-48
2020/03/20 16:29:32;;;;;;;3.63;3.17;;;;;;;20.51;42.31;100798.91;;;;-47
2020/03/20 16:32:32;;;;;;;4.29;3.56;;;;;;;20.53;42.33;100797.45;;;;-48
2020/03/20 16:35:31;;;;;;;4.17;3.52;;;;;;;20.54;42.33;100799.45;;;;-51
2020/03/20 16:38:32;;;;;;;5.21;3.39;;;;;;;20.55;42.50;100796.13;;;;-60
2020/03/20 16:41:32;;;;;;;4.09;3.57;;;;;;;20.55;42.25;100800.39;;;;-49
2020/03/20 16:44:31;;;;;;;3.81;3.43;;;;;;;20.56;42.51;100801.38;;;;-51
2020/03/20 16:47:31;;;;;;;4.25;3.33;;;;;;;20.56;42.59;100798.27;;;;-46
2020/03/20 16:50:32;;;;;;;5.17;3.83;;;;;;;20.58;42.59;100802.38;;;;-50
2020/03/20 16:53:31;;;;;;;5.52;3.59;;;;;;;20.58;42.35;100798.69;;;;-48
2020/03/20 16:56:32;;;;;;;3.87;3.53;;;;;;;20.59;42.52;100801.85;;;;-48
2020/03/20 16:59:31;;;;;;;4.03;3.62;;;;;;;20.61;42.47;100802.41;;;;-51
2020/03/20 17:02:32;;;;;;;4.12;3.67;;;;;;;20.62;42.51;100806.98;;;;-59
2020/03/20 17:05:32;;;;;;;4.90;3.53;;;;;;;20.62;42.52;100808.09;;;;-61
2020/03/20 17:08:32;;;;;;;4.02;3.58;;;;;;;20.63;42.35;100810.05;;;;-57
2020/03/20 17:11:32;;;;;;;4.41;3.46;;;;;;;20.63;42.37;100809.89;;;;-50
2020/03/20 17:14:31;;;;;;;5.51;3.62;;;;;;;20.64;42.50;100810.70;;;;-49
2020/03/20 17:17:32;;;;;;;3.78;3.38;;;;;;;20.64;42.41;100813.39;;;;-52
2020/03/20 17:20:32;;;;;;;4.65;3.73;;;;;;;20.65;42.48;100815.18;;;;-48
2020/03/20 17:23:31;;;;;;;3.91;3.53;;;;;;;20.65;42.48;100816.69;;;;-47
2020/03/20 17:26:32;;;;;;;4.35;3.93;;;;;;;20.66;42.48;100818.41;;;;-49
2020/03/20 17:29:32;;;;;;;4.66;3.59;;;;;;;20.67;42.56;100821.98;;;;-50
2020/03/20 17:32:32;;;;;;;7.51;3.65;;;;;;;20.67;42.58;100818.05;;;;-47
2020/03/20 17:35:31;;;;;;;4.48;3.72;;;;;;;20.68;42.40;100824.54;;;;-46
2020/03/20 17:38:31;;;;;;;4.79;3.63;;;;;;;20.69;42.64;100824.53;;;;-47
2020/03/20 17:41:32;;;;;;;4.24;3.73;;;;;;;20.71;42.81;100829.55;;;;-53